createdAt,value
2023-01-13T00:01:30.538Z,9.60
2023-01-13T00:05:26.052Z,9.30
2023-01-13T00:09:28.443Z,10.90
2023-01-13T00:13:30.929Z,10.40
2023-01-13T00:17:33.310Z,9.80
2023-01-13T00:21:38.501Z,11.60
2023-01-13T00:25:40.824Z,10.20
2023-01-13T00:29:43.120Z,9.10
2023-01-13T00:33:38.322Z,10.30
2023-01-13T00:37:22.926Z,8.70
2023-01-13T00:41:25.244Z,8.90
2023-01-13T00:45:27.600Z,10.60
2023-01-13T00:49:30.181Z,11.50
2023-01-13T00:53:25.374Z,10.40
2023-01-13T00:57:27.794Z,9.10
2023-01-13T01:01:30.210Z,8.10
2023-01-13T01:05:32.892Z,8.90
2023-01-13T01:09:35.317Z,10.20
2023-01-13T01:13:37.779Z,9.20
2023-01-13T01:17:40.256Z,10.20
2023-01-13T01:21:42.601Z,11.10
2023-01-13T01:25:45.075Z,11.20
2023-01-13T01:29:47.542Z,10.30
2023-01-13T01:33:49.969Z,9.70
2023-01-13T01:37:52.514Z,9.10
2023-01-13T01:41:58.814Z,9.20
2023-01-13T01:45:53.709Z,10.00
2023-01-13T01:49:47.717Z,9.60
2023-01-13T01:53:49.999Z,9.60
2023-01-13T01:57:50.911Z,9.50
2023-01-13T02:01:53.424Z,9.90
2023-01-13T02:05:45.850Z,8.80
2023-01-13T02:09:30.829Z,9.00
2023-01-13T02:13:15.701Z,8.50
2023-01-13T02:17:18.129Z,9.30
2023-01-13T02:21:20.532Z,9.10
2023-01-13T02:25:31.353Z,11.20
2023-01-13T02:29:41.211Z,9.30
2023-01-13T02:33:46.703Z,9.00
2023-01-13T02:37:49.147Z,9.30
2023-01-13T02:41:19.372Z,9.80
2023-01-13T02:45:13.771Z,7.60
2023-01-13T02:49:16.257Z,8.50
2023-01-13T02:53:18.648Z,9.20
2023-01-13T02:57:21.076Z,9.00
2023-01-13T03:01:17.125Z,10.60
2023-01-13T03:05:28.662Z,9.00
2023-01-13T03:09:31.139Z,8.80
2023-01-13T03:13:33.519Z,8.30
2023-01-13T03:17:54.146Z,7.30
2023-01-13T03:21:48.374Z,8.10
2023-01-13T03:25:56.603Z,8.40
2023-01-13T03:30:04.994Z,7.40
2023-01-13T03:34:10.234Z,8.90
2023-01-13T03:38:12.602Z,8.10
2023-01-13T03:42:14.911Z,7.90
2023-01-13T03:46:17.236Z,7.50
2023-01-13T03:50:19.576Z,7.50
2023-01-13T03:54:11.941Z,7.50
2023-01-13T03:58:14.430Z,8.40
2023-01-13T04:02:16.058Z,7.50
2023-01-13T04:06:00.833Z,8.10
2023-01-13T04:09:43.233Z,8.10
2023-01-13T04:13:45.571Z,6.70
2023-01-13T04:17:40.992Z,7.30
2023-01-13T04:21:16.270Z,6.90
2023-01-13T04:25:18.702Z,6.70
2023-01-13T04:29:21.042Z,6.90
2023-01-13T04:33:23.354Z,6.30
2023-01-13T04:37:24.471Z,6.50
2023-01-13T04:41:26.861Z,6.10
2023-01-13T04:45:29.248Z,6.80
2023-01-13T04:49:31.638Z,8.20
2023-01-13T04:53:33.041Z,6.30
2023-01-13T04:57:35.332Z,7.00
2023-01-13T05:01:37.901Z,6.30
2023-01-13T05:05:40.268Z,7.10
2023-01-13T05:09:42.541Z,7.00
2023-01-13T05:13:43.100Z,5.60
2023-01-13T05:17:45.448Z,6.30
2023-01-13T05:21:45.927Z,6.70
2023-01-13T05:25:51.353Z,6.00
2023-01-13T05:29:53.828Z,5.80
2023-01-13T05:33:56.317Z,5.70
2023-01-13T05:37:48.689Z,7.00
2023-01-13T05:41:49.201Z,6.70
2023-01-13T05:45:51.547Z,6.30
2023-01-13T05:49:43.740Z,6.10
2023-01-13T05:53:36.088Z,5.60
2023-01-13T05:56:40.913Z,6.90
2023-01-13T06:00:43.396Z,6.90
2023-01-13T06:04:37.247Z,5.90
2023-01-13T06:07:55.834Z,6.00
2023-01-13T06:11:37.909Z,6.10
2023-01-13T06:15:33.013Z,7.00
2023-01-13T06:19:35.447Z,6.00
2023-01-13T06:23:26.662Z,6.00
2023-01-13T06:27:01.236Z,6.60
2023-01-13T06:31:03.651Z,7.00
2023-01-13T06:34:51.628Z,6.60
2023-01-13T06:38:46.467Z,6.80
2023-01-13T06:42:37.345Z,8.30
2023-01-13T06:46:39.523Z,7.40
2023-01-13T06:50:41.985Z,6.60
2023-01-13T06:54:29.455Z,6.10
2023-01-13T06:58:24.057Z,6.50
2023-01-13T07:02:26.751Z,5.50
2023-01-13T07:06:02.387Z,6.60
2023-01-13T07:10:04.771Z,6.60
2023-01-13T07:13:55.380Z,6.90
2023-01-13T07:21:38.231Z,5.40
2023-01-13T07:25:03.136Z,5.60
2023-01-13T07:28:45.575Z,7.50
2023-01-13T07:32:47.970Z,7.80
2023-01-13T07:36:43.025Z,8.90
2023-01-13T07:40:15.971Z,10.30
2023-01-13T07:44:08.273Z,8.50
2023-01-13T07:48:10.667Z,7.70
2023-01-13T07:52:13.051Z,8.50
2023-01-13T07:56:07.788Z,6.50
2023-01-13T08:00:12.776Z,7.20
2023-01-13T08:04:14.470Z,8.50
2023-01-13T08:08:16.858Z,9.50
2023-01-13T08:12:17.330Z,8.90
2023-01-13T08:16:19.638Z,8.80
2023-01-13T08:20:12.060Z,9.20
2023-01-13T08:24:14.514Z,8.30
2023-01-13T08:28:15.861Z,9.00
2023-01-13T08:32:05.250Z,9.10
2023-01-13T08:36:07.739Z,8.20
2023-01-13T08:40:00.091Z,7.80
2023-01-13T08:43:43.750Z,10.00
2023-01-13T08:47:38.631Z,8.30
2023-01-13T08:51:43.782Z,12.50
2023-01-13T08:55:46.210Z,13.60
2023-01-13T08:59:31.449Z,12.70
2023-01-13T09:03:06.795Z,12.10
2023-01-13T09:06:41.992Z,11.60
2023-01-13T09:10:44.397Z,10.60
2023-01-13T09:14:39.380Z,10.60
2023-01-13T09:18:18.879Z,12.30
2023-01-13T09:22:13.768Z,11.10
2023-01-13T09:26:16.176Z,10.60
2023-01-13T09:30:16.320Z,12.30
2023-01-13T09:34:09.699Z,11.90
2023-01-13T09:38:12.014Z,10.40
2023-01-13T09:42:12.658Z,10.90
2023-01-13T09:46:15.107Z,11.90
2023-01-13T09:50:06.082Z,11.90
2023-01-13T09:54:07.635Z,11.30
2023-01-13T09:57:52.342Z,11.30
2023-01-13T10:02:03.930Z,10.80
2023-01-13T10:05:34.981Z,10.50
2023-01-13T10:09:22.611Z,12.20
2023-01-13T10:13:36.879Z,11.00
2023-01-13T10:17:18.693Z,9.80
2023-01-13T10:21:21.130Z,11.10
2023-01-13T10:25:18.530Z,9.50
2023-01-13T10:29:19.993Z,10.50
2023-01-13T10:33:22.248Z,10.70
2023-01-13T10:37:24.655Z,14.10
2023-01-13T10:41:27.145Z,13.40
2023-01-13T10:45:32.323Z,13.10
2023-01-13T10:49:37.524Z,13.80
2023-01-13T10:53:42.701Z,13.40
2023-01-13T10:57:52.982Z,12.40
2023-01-13T11:01:42.723Z,14.10
2023-01-13T11:06:00.369Z,12.50
2023-01-13T11:09:52.597Z,14.70
2023-01-13T11:13:57.763Z,14.90
2023-01-13T11:18:09.006Z,14.00
2023-01-13T11:21:54.980Z,14.60
2023-01-13T11:25:40.019Z,16.30
2023-01-13T11:29:45.421Z,14.80
2023-01-13T11:33:39.039Z,14.90
2023-01-13T11:37:35.120Z,15.90
2023-01-13T11:41:37.605Z,14.80
2023-01-13T11:45:42.761Z,13.20
2023-01-13T11:49:13.806Z,14.60
2023-01-13T11:53:31.365Z,14.60
2023-01-13T11:57:41.597Z,17.00
2023-01-13T12:01:25.492Z,16.40
2023-01-13T12:05:41.807Z,16.70
2023-01-13T12:10:03.624Z,20.00
2023-01-13T12:14:12.100Z,20.80
2023-01-13T12:18:15.398Z,19.90
2023-01-13T12:21:53.546Z,21.00
2023-01-13T12:28:35.514Z,20.90
2023-01-13T12:32:20.558Z,21.40
2023-01-13T12:36:18.722Z,22.00
2023-01-13T12:40:03.609Z,19.00
2023-01-13T12:44:04.357Z,18.20
2023-01-13T12:47:49.511Z,20.40
2023-01-13T12:51:50.992Z,20.80
2023-01-13T12:55:23.396Z,20.50
2023-01-13T12:59:07.230Z,20.60
2023-01-13T13:03:00.261Z,20.10
2023-01-13T13:06:51.634Z,24.50
2023-01-13T13:10:29.837Z,21.60
2023-01-13T13:14:23.982Z,21.40
2023-01-13T13:18:18.927Z,20.00
2023-01-13T13:22:20.287Z,20.30
2023-01-13T13:26:22.668Z,19.70
2023-01-13T13:30:07.439Z,19.30
2023-01-13T13:34:10.849Z,21.00
2023-01-13T13:37:56.230Z,18.50
2023-01-13T13:41:57.374Z,19.10
2023-01-13T13:45:58.265Z,20.30
2023-01-13T13:50:00.723Z,17.90
2023-01-13T13:54:03.044Z,18.10
2023-01-13T13:58:17.468Z,18.50
2023-01-13T14:02:22.560Z,17.10
2023-01-13T14:06:24.996Z,16.90
2023-01-13T14:10:19.920Z,14.50
2023-01-13T14:14:04.449Z,16.30
2023-01-13T14:17:48.376Z,19.00
2023-01-13T14:21:46.557Z,18.60
2023-01-13T14:25:21.499Z,18.60
2023-01-13T14:29:22.443Z,16.50
2023-01-13T14:33:24.789Z,15.80
2023-01-13T14:40:20.166Z,16.70
2023-01-13T14:44:02.423Z,17.10
2023-01-13T14:47:53.172Z,18.30
2023-01-13T14:51:48.543Z,19.80
2023-01-13T14:56:03.047Z,16.60
2023-01-13T15:00:12.707Z,17.20
2023-01-13T15:03:48.205Z,16.50
2023-01-13T15:07:50.537Z,15.90
2023-01-13T15:11:55.710Z,16.70
2023-01-13T15:16:01.201Z,17.40
2023-01-13T15:20:01.920Z,16.70
2023-01-13T15:23:47.373Z,18.20
2023-01-13T15:27:17.258Z,17.40
2023-01-13T15:31:01.317Z,18.10
2023-01-13T15:34:44.897Z,17.50
2023-01-13T15:38:20.548Z,16.70
2023-01-13T15:42:21.096Z,17.50
2023-01-13T15:46:14.627Z,17.40
2023-01-13T15:50:16.917Z,16.50
2023-01-13T15:54:19.338Z,16.40
2023-01-13T15:58:21.627Z,16.70
2023-01-13T16:02:12.363Z,18.40
2023-01-13T16:05:46.730Z,17.30
2023-01-13T16:09:49.132Z,15.90
2023-01-13T16:13:51.499Z,15.40
2023-01-13T16:17:37.002Z,15.40
2023-01-13T16:21:41.882Z,15.00
2023-01-13T16:25:44.245Z,17.00
2023-01-13T16:29:46.516Z,16.90
2023-01-13T16:33:48.821Z,15.10
2023-01-13T16:38:00.144Z,15.70
2023-01-13T16:42:01.302Z,16.60
2023-01-13T16:45:46.041Z,17.00
2023-01-13T16:49:29.297Z,16.20
2023-01-13T16:53:31.642Z,17.10
2023-01-13T16:57:33.972Z,17.90
2023-01-13T17:01:36.474Z,17.70
2023-01-13T17:05:21.562Z,16.20
2023-01-13T17:09:23.873Z,17.20
2023-01-13T17:13:18.834Z,17.40
2023-01-13T17:16:51.111Z,16.60
2023-01-13T17:19:56.669Z,18.00
2023-01-13T17:27:03.398Z,15.50
2023-01-13T17:31:05.960Z,14.50
2023-01-13T17:35:08.347Z,15.00
2023-01-13T17:39:10.659Z,14.50
2023-01-13T17:43:11.845Z,16.60
2023-01-13T17:47:14.262Z,15.40
2023-01-13T17:51:10.002Z,15.50
2023-01-13T17:55:12.348Z,16.60
2023-01-13T17:59:14.853Z,17.80
2023-01-13T18:03:05.853Z,13.80
2023-01-13T18:06:47.950Z,12.80
2023-01-13T18:10:50.473Z,15.60
2023-01-13T18:14:45.661Z,15.50
2023-01-13T18:18:40.638Z,14.40
2023-01-13T18:22:41.218Z,14.70
2023-01-13T18:26:54.261Z,13.50
2023-01-13T18:30:49.182Z,14.90
2023-01-13T18:35:01.599Z,17.00
2023-01-13T18:39:07.748Z,14.10
2023-01-13T18:43:12.792Z,19.90
2023-01-13T18:47:15.080Z,22.80
2023-01-13T18:51:00.121Z,24.10
2023-01-13T18:55:02.513Z,28.90
2023-01-13T18:59:04.966Z,14.70
2023-01-13T19:03:10.007Z,14.80
2023-01-13T19:07:12.385Z,14.50
2023-01-13T19:11:04.867Z,13.00
2023-01-13T19:15:07.191Z,15.10
2023-01-13T19:19:09.433Z,17.70
2023-01-13T19:23:11.724Z,16.70
2023-01-13T19:27:14.041Z,20.30
2023-01-13T19:35:42.913Z,13.70
2023-01-13T19:39:37.734Z,14.80
2023-01-13T19:43:38.215Z,13.30
2023-01-13T19:47:40.602Z,12.50
2023-01-13T19:51:42.933Z,13.30
2023-01-13T19:55:38.313Z,16.90
2023-01-13T20:03:22.902Z,16.20
2023-01-13T20:07:18.024Z,18.80
2023-01-13T20:11:13.532Z,23.60
2023-01-13T20:15:15.976Z,15.70
2023-01-13T20:19:18.403Z,16.20
2023-01-13T20:23:20.888Z,14.10
2023-01-13T20:27:23.252Z,16.20
2023-01-13T20:31:27.803Z,17.60
2023-01-13T20:35:30.926Z,16.00
2023-01-13T20:39:26.742Z,16.70
2023-01-13T20:43:29.223Z,15.00
2023-01-13T20:47:22.271Z,13.50
2023-01-13T20:51:23.250Z,11.90
2023-01-13T20:55:25.829Z,12.30
2023-01-13T20:59:29.248Z,13.20
2023-01-13T21:03:33.062Z,16.70
2023-01-13T21:07:45.752Z,16.20
2023-01-13T21:11:43.965Z,17.00
2023-01-13T21:15:46.782Z,15.30
2023-01-13T21:19:49.143Z,14.20
2023-01-13T21:23:51.521Z,13.70
2023-01-13T21:27:53.925Z,15.90
2023-01-13T21:31:56.230Z,17.20
2023-01-13T21:35:58.626Z,17.90
2023-01-13T21:40:00.930Z,19.90
2023-01-13T21:43:51.564Z,17.60
2023-01-13T21:48:09.416Z,18.30
2023-01-13T21:52:11.775Z,18.50
2023-01-13T21:56:03.997Z,16.30
2023-01-13T22:00:06.381Z,13.90
2023-01-13T22:04:07.618Z,14.60
2023-01-13T22:08:09.990Z,12.20
2023-01-13T22:11:56.108Z,15.00
2023-01-13T22:15:39.721Z,12.00
2023-01-13T22:19:33.460Z,11.70
2023-01-13T22:23:15.743Z,12.40
2023-01-13T22:27:18.043Z,12.90
2023-01-13T22:31:12.803Z,12.70
2023-01-13T22:34:57.880Z,10.20
2023-01-13T22:38:48.668Z,10.30
2023-01-13T22:42:51.078Z,9.90
2023-01-13T22:46:34.378Z,12.20
2023-01-13T22:50:36.717Z,12.80
2023-01-13T22:54:18.889Z,11.10
2023-01-13T22:57:57.009Z,11.70
2023-01-13T23:01:59.400Z,11.90
2023-01-13T23:06:01.816Z,11.40
2023-01-13T23:10:04.269Z,12.90
2023-01-13T23:14:06.648Z,13.50
2023-01-13T23:18:09.015Z,11.30
2023-01-13T23:21:55.622Z,11.30
2023-01-13T23:25:50.492Z,11.60
2023-01-13T23:29:52.949Z,9.30
2023-01-13T23:33:55.440Z,10.80
2023-01-13T23:38:04.375Z,9.30
2023-01-13T23:42:06.684Z,10.10
2023-01-13T23:46:01.983Z,11.10
2023-01-13T23:50:04.321Z,9.70
2023-01-13T23:54:06.650Z,10.80
2023-01-13T23:58:10.135Z,11.00
